sensor_id;sensor_type;location;lat;lon;timestamp;pressure;altitude;pressure_sealevel;temperature;humidity
21504;BME280;10913;51.992;9.228;2022-11-15T00:00:46;99847.84;;;8.78;100.00
21504;BME280;10913;51.992;9.228;2022-11-15T00:03:22;99843.38;;;8.85;100.00
21504;BME280;10913;51.992;9.228;2022-11-15T00:05:48;99845.13;;;8.89;100.00
21504;BME280;10913;51.992;9.228;2022-11-15T00:08:14;99844.22;;;8.94;100.00
21504;BME280;10913;51.992;9.228;2022-11-15T00:10:40;99844.19;;;8.99;100.00
21504;BME280;10913;51.992;9.228;2022-11-15T00:13:12;99851.16;;;9.02;100.00
21504;BME280;10913;51.992;9.228;2022-11-15T00:15:39;99848.50;;;9.03;100.00
21504;BME280;10913;51.992;9.228;2022-11-15T00:18:06;99853.78;;;9.06;100.00
21504;BME280;10913;51.992;9.228;2022-11-15T00:20:35;99854.63;;;9.10;100.00
21504;BME280;10913;51.992;9.228;2022-11-15T00:23:03;99855.38;;;9.22;100.00
21504;BME280;10913;51.992;9.228;2022-11-15T00:25:28;99842.19;;;9.27;100.00
21504;BME280;10913;51.992;9.228;2022-11-15T00:27:58;99840.38;;;9.32;100.00
21504;BME280;10913;51.992;9.228;2022-11-15T00:30:24;99831.56;;;9.35;100.00
21504;BME280;10913;51.992;9.228;2022-11-15T00:32:49;99842.97;;;9.38;100.00
21504;BME280;10913;51.992;9.228;2022-11-15T00:35:15;99833.31;;;9.39;100.00
21504;BME280;10913;51.992;9.228;2022-11-15T00:37:40;99839.38;;;9.44;100.00
21504;BME280;10913;51.992;9.228;2022-11-15T00:40:07;99830.56;;;9.48;100.00
21504;BME280;10913;51.992;9.228;2022-11-15T00:42:32;99834.03;;;9.51;100.00
21504;BME280;10913;51.992;9.228;2022-11-15T00:44:58;99838.41;;;9.55;100.00
21504;BME280;10913;51.992;9.228;2022-11-15T00:47:23;99830.47;;;9.58;100.00
21504;BME280;10913;51.992;9.228;2022-11-15T00:49:48;99824.25;;;9.62;100.00
21504;BME280;10913;51.992;9.228;2022-11-15T00:52:14;99826.84;;;9.65;100.00
21504;BME280;10913;51.992;9.228;2022-11-15T00:54:39;99826.81;;;9.68;100.00
21504;BME280;10913;51.992;9.228;2022-11-15T00:57:05;99825.03;;;9.72;100.00
21504;BME280;10913;51.992;9.228;2022-11-15T00:59:30;99829.41;;;9.75;100.00
21504;BME280;10913;51.992;9.228;2022-11-15T01:01:55;99823.25;;;9.74;100.00
21504;BME280;10913;51.992;9.228;2022-11-15T01:04:21;99821.47;;;9.76;100.00
21504;BME280;10913;51.992;9.228;2022-11-15T01:06:46;99816.09;;;9.82;100.00
21504;BME280;10913;51.992;9.228;2022-11-15T01:09:11;99815.13;;;9.92;100.00
21504;BME280;10913;51.992;9.228;2022-11-15T01:11:38;99816.88;;;9.95;100.00
21504;BME280;10913;51.992;9.228;2022-11-15T01:14:04;99809.81;;;9.97;100.00
21504;BME280;10913;51.992;9.228;2022-11-15T01:16:29;99802.75;;;9.99;100.00
21504;BME280;10913;51.992;9.228;2022-11-15T01:18:55;99798.94;;;10.21;100.00
21504;BME280;10913;51.992;9.228;2022-11-15T01:21:21;99795.28;;;10.33;100.00
21504;BME280;10913;51.992;9.228;2022-11-15T01:23:46;99797.00;;;10.35;100.00
21504;BME280;10913;51.992;9.228;2022-11-15T01:26:14;99796.03;;;10.41;100.00
21504;BME280;10913;51.992;9.228;2022-11-15T01:28:41;99788.91;;;10.46;100.00
21504;BME280;10913;51.992;9.228;2022-11-15T01:31:11;99786.28;;;10.46;100.00
21504;BME280;10913;51.992;9.228;2022-11-15T01:33:37;99786.19;;;10.52;100.00
21504;BME280;10913;51.992;9.228;2022-11-15T01:36:07;99772.94;;;10.55;100.00
21504;BME280;10913;51.992;9.228;2022-11-15T01:38:34;99774.69;;;10.56;100.00
21504;BME280;10913;51.992;9.228;2022-11-15T01:40:59;99766.81;;;10.55;100.00
21504;BME280;10913;51.992;9.228;2022-11-15T01:43:28;99772.13;;;10.52;100.00
21504;BME280;10913;51.992;9.228;2022-11-15T01:48:31;99772.13;;;10.52;100.00
21504;BME280;10913;51.992;9.228;2022-11-15T01:51:03;99766.88;;;10.50;100.00
21504;BME280;10913;51.992;9.228;2022-11-15T01:53:31;99776.50;;;10.53;100.00
21504;BME280;10913;51.992;9.228;2022-11-15T01:56:02;99773.81;;;10.56;100.00
21504;BME280;10913;51.992;9.228;2022-11-15T01:58:29;99768.50;;;10.59;100.00
21504;BME280;10913;51.992;9.228;2022-11-15T02:00:55;99757.00;;;10.61;100.00
21504;BME280;10913;51.992;9.228;2022-11-15T02:03:22;99763.94;;;10.68;100.00
21504;BME280;10913;51.992;9.228;2022-11-15T02:05:51;99763.00;;;10.73;100.00
21504;BME280;10913;51.992;9.228;2022-11-15T02:08:18;99757.66;;;10.76;100.00
21504;BME280;10913;51.992;9.228;2022-11-15T02:10:46;99754.09;;;10.78;100.00
21504;BME280;10913;51.992;9.228;2022-11-15T02:13:14;99746.03;;;10.86;100.00
21504;BME280;10913;51.992;9.228;2022-11-15T02:15:48;99747.69;;;10.93;100.00
21504;BME280;10913;51.992;9.228;2022-11-15T02:18:27;99752.94;;;10.96;100.00
21504;BME280;10913;51.992;9.228;2022-11-15T02:21:01;99755.63;;;10.93;100.00
21504;BME280;10913;51.992;9.228;2022-11-15T02:32:39;99751.84;;;11.06;100.00
21504;BME280;10913;51.992;9.228;2022-11-15T02:38:05;99759.59;;;11.18;100.00
21504;BME280;10913;51.992;9.228;2022-11-15T02:40:53;99749.78;;;11.22;100.00
21504;BME280;10913;51.992;9.228;2022-11-15T02:43:33;99748.78;;;11.30;100.00
21504;BME280;10913;51.992;9.228;2022-11-15T02:49:19;99753.94;;;11.38;100.00
21504;BME280;10913;51.992;9.228;2022-11-15T02:51:47;99754.72;;;11.42;100.00
21504;BME280;10913;51.992;9.228;2022-11-15T02:54:29;99744.88;;;11.50;100.00
21504;BME280;10913;51.992;9.228;2022-11-15T02:57:02;99743.19;;;11.46;100.00
21504;BME280;10913;51.992;9.228;2022-11-15T03:05:52;99735.34;;;11.41;100.00
21504;BME280;10913;51.992;9.228;2022-11-15T03:08:22;99732.69;;;11.41;100.00
21504;BME280;10913;51.992;9.228;2022-11-15T03:11:09;99740.56;;;11.44;100.00
21504;BME280;10913;51.992;9.228;2022-11-15T03:13:45;99732.72;;;11.39;100.00
21504;BME280;10913;51.992;9.228;2022-11-15T03:16:34;99738.00;;;11.39;100.00
21504;BME280;10913;51.992;9.228;2022-11-15T03:19:12;99732.69;;;11.41;100.00
21504;BME280;10913;51.992;9.228;2022-11-15T03:21:40;99728.28;;;11.42;100.00
21504;BME280;10913;51.992;9.228;2022-11-15T03:24:07;99720.34;;;11.42;100.00
21504;BME280;10913;51.992;9.228;2022-11-15T03:26:35;99723.78;;;11.45;100.00
21504;BME280;10913;51.992;9.228;2022-11-15T03:29:08;99729.06;;;11.47;100.00
21504;BME280;10913;51.992;9.228;2022-11-15T03:31:38;99721.06;;;11.50;100.00
21504;BME280;10913;51.992;9.228;2022-11-15T03:37:01;99725.50;;;11.48;100.00
21504;BME280;10913;51.992;9.228;2022-11-15T03:39:27;99722.91;;;11.46;100.00
21504;BME280;10913;51.992;9.228;2022-11-15T03:42:06;99720.34;;;11.42;100.00
21504;BME280;10913;51.992;9.228;2022-11-15T03:44:54;99719.56;;;11.38;100.00
21504;BME280;10913;51.992;9.228;2022-11-15T03:47:27;99724.91;;;11.33;100.00
21504;BME280;10913;51.992;9.228;2022-11-15T03:50:14;99725.84;;;11.31;100.00
21504;BME280;10913;51.992;9.228;2022-11-15T03:52:41;99721.59;;;11.22;100.00
21504;BME280;10913;51.992;9.228;2022-11-15T03:55:10;99724.22;;;11.22;100.00
21504;BME280;10913;51.992;9.228;2022-11-15T03:57:36;99727.81;;;11.20;100.00
21504;BME280;10913;51.992;9.228;2022-11-15T04:00:03;99729.66;;;11.16;100.00
21504;BME280;10913;51.992;9.228;2022-11-15T04:02:28;99722.66;;;11.12;100.00
21504;BME280;10913;51.992;9.228;2022-11-15T04:04:54;99720.13;;;11.06;100.00
21504;BME280;10913;51.992;9.228;2022-11-15T04:07:19;99721.94;;;11.04;100.00
21504;BME280;10913;51.992;9.228;2022-11-15T04:09:45;99713.22;;;10.99;100.00
21504;BME280;10913;51.992;9.228;2022-11-15T04:12:36;99712.44;;;10.94;100.00
21504;BME280;10913;51.992;9.228;2022-11-15T04:17:44;99728.28;;;10.94;100.00
21504;BME280;10913;51.992;9.228;2022-11-15T04:20:15;99721.34;;;10.88;100.00
21504;BME280;10913;51.992;9.228;2022-11-15T04:23:01;99720.50;;;10.85;100.00
21504;BME280;10913;51.992;9.228;2022-11-15T04:25:48;99720.56;;;10.80;100.00
21504;BME280;10913;51.992;9.228;2022-11-15T04:28:15;99718.91;;;10.76;100.00
21504;BME280;10913;51.992;9.228;2022-11-15T04:30:40;99722.50;;;10.70;100.00
21504;BME280;10913;51.992;9.228;2022-11-15T04:33:06;99724.34;;;10.65;100.00
21504;BME280;10913;51.992;9.228;2022-11-15T04:35:31;99725.28;;;10.61;100.00
21504;BME280;10913;51.992;9.228;2022-11-15T04:37:57;99725.44;;;10.54;100.00
21504;BME280;10913;51.992;9.228;2022-11-15T04:40:23;99733.47;;;10.46;100.00
21504;BME280;10913;51.992;9.228;2022-11-15T04:42:48;99732.66;;;10.41;100.00
21504;BME280;10913;51.992;9.228;2022-11-15T04:45:14;99726.56;;;10.39;100.00
21504;BME280;10913;51.992;9.228;2022-11-15T04:47:39;99726.56;;;10.39;100.00
21504;BME280;10913;51.992;9.228;2022-11-15T04:50:05;99729.25;;;10.36;100.00
21504;BME280;10913;51.992;9.228;2022-11-15T04:52:30;99727.50;;;10.35;100.00
21504;BME280;10913;51.992;9.228;2022-11-15T04:54:56;99730.16;;;10.33;100.00
21504;BME280;10913;51.992;9.228;2022-11-15T04:57:21;99731.03;;;10.34;100.00
21504;BME280;10913;51.992;9.228;2022-11-15T04:59:46;99731.03;;;10.34;100.00
21504;BME280;10913;51.992;9.228;2022-11-15T05:02:12;99725.75;;;10.34;100.00
21504;BME280;10913;51.992;9.228;2022-11-15T05:04:37;99719.56;;;10.35;100.00
21504;BME280;10913;51.992;9.228;2022-11-15T05:07:02;99725.75;;;10.34;100.00
21504;BME280;10913;51.992;9.228;2022-11-15T05:09:31;99726.63;;;10.33;100.00
21504;BME280;10913;51.992;9.228;2022-11-15T05:11:56;99724.88;;;10.32;100.00
21504;BME280;10913;51.992;9.228;2022-11-15T05:14:22;99723.13;;;10.32;100.00
21504;BME280;10913;51.992;9.228;2022-11-15T05:16:47;99719.56;;;10.35;100.00
21504;BME280;10913;51.992;9.228;2022-11-15T05:19:13;99719.53;;;10.38;100.00
21504;BME280;10913;51.992;9.228;2022-11-15T05:21:38;99716.81;;;10.41;100.00
21504;BME280;10913;51.992;9.228;2022-11-15T05:24:04;99720.31;;;10.43;100.00
21504;BME280;10913;51.992;9.228;2022-11-15T05:26:30;99716.78;;;10.44;100.00
21504;BME280;10913;51.992;9.228;2022-11-15T05:28:57;99720.25;;;10.46;100.00
21504;BME280;10913;51.992;9.228;2022-11-15T05:31:23;99716.69;;;10.50;100.00
21504;BME280;10913;51.992;9.228;2022-11-15T05:33:50;99714.72;;;10.61;100.00
21504;BME280;10913;51.992;9.228;2022-11-15T05:36:31;99716.38;;;10.68;100.00
21504;BME280;10913;51.992;9.228;2022-11-15T05:38:59;99705.75;;;10.73;100.00
21504;BME280;10913;51.992;9.228;2022-11-15T05:41:37;99709.25;;;10.74;100.00
21504;BME280;10913;51.992;9.228;2022-11-15T05:44:06;99711.84;;;10.78;100.00
21504;BME280;10913;51.992;9.228;2022-11-15T05:46:33;99707.34;;;10.82;100.00
21504;BME280;10913;51.992;9.228;2022-11-15T05:48:59;99717.00;;;10.84;100.00
21504;BME280;10913;51.992;9.228;2022-11-15T05:51:27;99710.72;;;10.91;100.00
21504;BME280;10913;51.992;9.228;2022-11-15T05:53:56;99711.91;;;11.21;100.00
21504;BME280;10913;51.992;9.228;2022-11-15T05:56:24;99701.13;;;11.33;100.00
21504;BME280;10913;51.992;9.228;2022-11-15T05:58:53;99711.38;;;11.49;100.00
21504;BME280;10913;51.992;9.228;2022-11-15T06:01:20;99702.28;;;11.62;100.00
21504;BME280;10913;51.992;9.228;2022-11-15T06:03:46;99703.03;;;11.70;100.00
21504;BME280;10913;51.992;9.228;2022-11-15T06:06:11;99703.81;;;11.75;100.00
21504;BME280;10913;51.992;9.228;2022-11-15T06:08:36;99700.19;;;11.79;100.00
21504;BME280;10913;51.992;9.228;2022-11-15T06:11:06;99709.97;;;11.76;100.00
21504;BME280;10913;51.992;9.228;2022-11-15T06:13:32;99707.34;;;11.74;100.00
21504;BME280;10913;51.992;9.228;2022-11-15T06:15:58;99707.41;;;11.71;100.00
21504;BME280;10913;51.992;9.228;2022-11-15T06:18:24;99709.28;;;11.66;100.00
21504;BME280;10913;51.992;9.228;2022-11-15T06:20:49;99704.94;;;11.62;100.00
21504;BME280;10913;51.992;9.228;2022-11-15T06:23:14;99704.19;;;11.57;100.00
21504;BME280;10913;51.992;9.228;2022-11-15T06:25:40;99698.09;;;11.53;100.00
21504;BME280;10913;51.992;9.228;2022-11-15T06:28:05;99704.31;;;11.49;100.00
21504;BME280;10913;51.992;9.228;2022-11-15T06:30:31;99690.28;;;11.46;100.00
21504;BME280;10913;51.992;9.228;2022-11-15T06:33:01;99696.56;;;11.40;100.00
21504;BME280;10913;51.992;9.228;2022-11-15T06:35:27;99694.06;;;11.34;100.00
21504;BME280;10913;51.992;9.228;2022-11-15T06:37:53;99696.84;;;11.26;100.00
21504;BME280;10913;51.992;9.228;2022-11-15T06:40:18;99693.44;;;11.20;100.00
21504;BME280;10913;51.992;9.228;2022-11-15T06:42:43;99695.38;;;11.12;100.00
21504;BME280;10913;51.992;9.228;2022-11-15T06:45:09;99696.41;;;11.03;100.00
21504;BME280;10913;51.992;9.228;2022-11-15T06:47:34;99707.97;;;10.97;100.00
21504;BME280;10913;51.992;9.228;2022-11-15T06:50:00;99708.91;;;10.95;100.00
21504;BME280;10913;51.992;9.228;2022-11-15T06:52:25;99708.03;;;10.93;100.00
21504;BME280;10913;51.992;9.228;2022-11-15T06:54:51;99705.44;;;10.90;100.00
21504;BME280;10913;51.992;9.228;2022-11-15T06:57:16;99705.50;;;10.87;100.00
21504;BME280;10913;51.992;9.228;2022-11-15T06:59:41;99714.38;;;10.83;100.00
21504;BME280;10913;51.992;9.228;2022-11-15T07:02:12;99714.41;;;10.80;100.00
21504;BME280;10913;51.992;9.228;2022-11-15T07:04:38;99724.22;;;10.75;100.00
21504;BME280;10913;51.992;9.228;2022-11-15T07:07:03;99719.88;;;10.70;100.00
21504;BME280;10913;51.992;9.228;2022-11-15T07:09:28;99715.50;;;10.69;100.00
21504;BME280;10913;51.992;9.228;2022-11-15T07:11:54;99714.53;;;10.74;100.00
21504;BME280;10913;51.992;9.228;2022-11-15T07:14:19;99720.56;;;10.80;100.00
21504;BME280;10913;51.992;9.228;2022-11-15T07:16:44;99726.53;;;10.93;100.00
21504;BME280;10913;51.992;9.228;2022-11-15T07:19:10;99719.13;;;11.13;100.00
21504;BME280;10913;51.992;9.228;2022-11-15T07:21:36;99725.94;;;11.26;100.00
21504;BME280;10913;51.992;9.228;2022-11-15T07:24:02;99727.56;;;11.33;100.00
21504;BME280;10913;51.992;9.228;2022-11-15T07:26:29;99735.44;;;11.36;100.00
21504;BME280;10913;51.992;9.228;2022-11-15T07:28:54;99731.94;;;11.36;100.00
21504;BME280;10913;51.992;9.228;2022-11-15T07:31:19;99733.75;;;11.32;100.00
21504;BME280;10913;51.992;9.228;2022-11-15T07:33:45;99738.25;;;11.27;100.00
21504;BME280;10913;51.992;9.228;2022-11-15T07:36:10;99735.72;;;11.21;100.00
21504;BME280;10913;51.992;9.228;2022-11-15T07:38:36;99734.03;;;11.17;100.00
21504;BME280;10913;51.992;9.228;2022-11-15T07:41:03;99730.56;;;11.15;100.00
21504;BME280;10913;51.992;9.228;2022-11-15T07:43:29;99728.72;;;11.19;100.00
21504;BME280;10913;51.992;9.228;2022-11-15T07:45:56;99730.25;;;11.30;100.00
21504;BME280;10913;51.992;9.228;2022-11-15T07:48:22;99725.63;;;11.42;100.00
21504;BME280;10913;51.992;9.228;2022-11-15T07:50:47;99721.91;;;11.52;100.00
21504;BME280;10913;51.992;9.228;2022-11-15T07:53:13;99732.22;;;11.65;100.00
21504;BME280;10913;51.992;9.228;2022-11-15T07:55:40;99723.06;;;11.83;100.00
21504;BME280;10913;51.992;9.228;2022-11-15T07:58:08;99727.00;;;12.04;100.00
21504;BME280;10913;51.992;9.228;2022-11-15T08:00:35;99730.28;;;12.17;100.00
21504;BME280;10913;51.992;9.228;2022-11-15T08:03:07;99721.00;;;12.36;100.00
21504;BME280;10913;51.992;9.228;2022-11-15T08:05:34;99724.75;;;12.63;100.00
21504;BME280;10913;51.992;9.228;2022-11-15T08:07:59;99730.25;;;12.91;100.00
21504;BME280;10913;51.992;9.228;2022-11-15T08:10:26;99734.09;;;13.13;99.92
21504;BME280;10913;51.992;9.228;2022-11-15T08:15:24;99736.63;;;13.52;97.75
21504;BME280;10913;51.992;9.228;2022-11-15T08:17:54;99735.16;;;13.72;97.64
21504;BME280;10913;51.992;9.228;2022-11-15T08:20:19;99738.19;;;14.48;93.72
21504;BME280;10913;51.992;9.228;2022-11-15T08:22:45;99732.84;;;15.54;89.94
21504;BME280;10913;51.992;9.228;2022-11-15T08:25:10;99722.03;;;16.29;85.83
21504;BME280;10913;51.992;9.228;2022-11-15T08:27:35;99713.97;;;17.17;82.40
21504;BME280;10913;51.992;9.228;2022-11-15T08:30:01;99707.50;;;18.39;77.90
21504;BME280;10913;51.992;9.228;2022-11-15T08:32:26;99702.09;;;19.97;73.47
21504;BME280;10913;51.992;9.228;2022-11-15T08:34:52;99693.78;;;21.10;69.32
21504;BME280;10913;51.992;9.228;2022-11-15T08:37:17;99689.59;;;22.21;66.75
21504;BME280;10913;51.992;9.228;2022-11-15T08:39:43;99678.81;;;22.62;64.60
21504;BME280;10913;51.992;9.228;2022-11-15T08:42:09;99677.88;;;22.90;63.84
21504;BME280;10913;51.992;9.228;2022-11-15T08:44:34;99667.44;;;22.45;63.73
21504;BME280;10913;51.992;9.228;2022-11-15T08:46:59;99675.69;;;22.56;63.87
21504;BME280;10913;51.992;9.228;2022-11-15T08:49:25;99666.88;;;22.40;63.60
21504;BME280;10913;51.992;9.228;2022-11-15T08:51:50;99685.06;;;22.63;62.98
21504;BME280;10913;51.992;9.228;2022-11-15T08:54:16;99675.88;;;23.07;61.71
21504;BME280;10913;51.992;9.228;2022-11-15T08:56:41;99679.06;;;22.86;62.93
21504;BME280;10913;51.992;9.228;2022-11-15T08:59:06;99694.03;;;21.94;63.71
21504;BME280;10913;51.992;9.228;2022-11-15T09:01:32;99688.84;;;21.91;64.32
21504;BME280;10913;51.992;9.228;2022-11-15T09:03:57;99684.63;;;21.87;64.74
21504;BME280;10913;51.992;9.228;2022-11-15T09:06:23;99684.41;;;22.18;63.44
21504;BME280;10913;51.992;9.228;2022-11-15T09:08:48;99679.81;;;22.20;63.11
21504;BME280;10913;51.992;9.228;2022-11-15T09:11:13;99692.00;;;22.26;63.42
21504;BME280;10913;51.992;9.228;2022-11-15T09:13:41;99688.25;;;22.28;63.06
21504;BME280;10913;51.992;9.228;2022-11-15T09:16:06;99689.06;;;22.16;63.62
21504;BME280;10913;51.992;9.228;2022-11-15T09:18:32;99695.00;;;22.07;63.35
21504;BME280;10913;51.992;9.228;2022-11-15T09:20:59;99690.13;;;22.41;62.84
21504;BME280;10913;51.992;9.228;2022-11-15T09:23:25;99695.56;;;21.84;63.48
21504;BME280;10913;51.992;9.228;2022-11-15T09:25:51;99699.38;;;21.51;64.43
21504;BME280;10913;51.992;9.228;2022-11-15T09:28:17;99699.75;;;21.31;65.06
21504;BME280;10913;51.992;9.228;2022-11-15T09:30:43;99695.34;;;21.14;65.01
21504;BME280;10913;51.992;9.228;2022-11-15T09:33:10;99710.31;;;20.88;66.01
21504;BME280;10913;51.992;9.228;2022-11-15T09:35:36;99706.44;;;20.78;66.61
21504;BME280;10913;51.992;9.228;2022-11-15T09:38:02;99704.91;;;21.04;66.25
21504;BME280;10913;51.992;9.228;2022-11-15T09:40:30;99701.16;;;20.77;66.43
21504;BME280;10913;51.992;9.228;2022-11-15T09:50:45;99703.00;;;19.63;68.56
21504;BME280;10913;51.992;9.228;2022-11-15T09:53:14;99705.34;;;19.53;69.77
21504;BME280;10913;51.992;9.228;2022-11-15T09:56:00;99687.72;;;19.65;69.32
21504;BME280;10913;51.992;9.228;2022-11-15T09:58:41;99694.59;;;19.36;69.96
21504;BME280;10913;51.992;9.228;2022-11-15T10:01:17;99699.97;;;19.36;70.02
21504;BME280;10913;51.992;9.228;2022-11-15T10:03:45;99684.59;;;19.57;69.95
21504;BME280;10913;51.992;9.228;2022-11-15T10:06:21;99688.28;;;19.72;69.39
21504;BME280;10913;51.992;9.228;2022-11-15T10:11:32;99685.00;;;19.82;69.06
21504;BME280;10913;51.992;9.228;2022-11-15T10:14:01;99684.06;;;19.33;69.60
21504;BME280;10913;51.992;9.228;2022-11-15T10:16:35;99679.16;;;18.72;71.40
21504;BME280;10913;51.992;9.228;2022-11-15T10:24:42;99665.75;;;17.80;74.80
21504;BME280;10913;51.992;9.228;2022-11-15T10:27:12;99668.59;;;18.14;74.43
21504;BME280;10913;51.992;9.228;2022-11-15T10:29:48;99655.72;;;18.58;73.11
21504;BME280;10913;51.992;9.228;2022-11-15T10:32:19;99653.34;;;18.71;71.85
21504;BME280;10913;51.992;9.228;2022-11-15T10:34:45;99653.50;;;18.49;72.69
21504;BME280;10913;51.992;9.228;2022-11-15T10:37:11;99646.63;;;18.63;72.70
21504;BME280;10913;51.992;9.228;2022-11-15T10:39:36;99645.09;;;18.76;72.48
21504;BME280;10913;51.992;9.228;2022-11-15T10:42:26;99639.16;;;18.86;71.75
21504;BME280;10913;51.992;9.228;2022-11-15T10:44:52;99643.22;;;18.59;72.24
21504;BME280;10913;51.992;9.228;2022-11-15T10:49:58;99643.59;;;18.15;73.88
21504;BME280;10913;51.992;9.228;2022-11-15T10:52:24;99631.13;;;17.97;73.91
21504;BME280;10913;51.992;9.228;2022-11-15T10:54:58;99624.94;;;17.58;75.04
21504;BME280;10913;51.992;9.228;2022-11-15T10:57:26;99623.81;;;17.43;75.49
21504;BME280;10913;51.992;9.228;2022-11-15T11:00:00;99623.06;;;17.39;76.16
21504;BME280;10913;51.992;9.228;2022-11-15T11:02:38;99624.81;;;17.40;76.38
21504;BME280;10913;51.992;9.228;2022-11-15T11:05:07;99618.50;;;17.22;76.47
21504;BME280;10913;51.992;9.228;2022-11-15T11:08:05;99624.78;;;17.21;76.93
21504;BME280;10913;51.992;9.228;2022-11-15T11:11:07;99610.09;;;17.32;77.29
21504;BME280;10913;51.992;9.228;2022-11-15T11:13:33;99614.13;;;17.40;76.78
21504;BME280;10913;51.992;9.228;2022-11-15T11:18:56;99608.63;;;17.25;76.76
21504;BME280;10913;51.992;9.228;2022-11-15T11:21:38;99594.34;;;17.26;77.41
21504;BME280;10913;51.992;9.228;2022-11-15T11:27:22;99599.84;;;17.41;77.14
21504;BME280;10913;51.992;9.228;2022-11-15T11:32:55;99594.44;;;17.43;77.17
21504;BME280;10913;51.992;9.228;2022-11-15T11:45:58;99591.88;;;17.21;76.97
21504;BME280;10913;51.992;9.228;2022-11-15T11:51:03;99580.41;;;16.99;78.20
21504;BME280;10913;51.992;9.228;2022-11-15T11:53:49;99582.72;;;16.67;79.00
21504;BME280;10913;51.992;9.228;2022-11-15T11:56:35;99579.03;;;16.70;79.49
21504;BME280;10913;51.992;9.228;2022-11-15T12:01:54;99562.56;;;16.80;79.76
21504;BME280;10913;51.992;9.228;2022-11-15T12:04:34;99560.44;;;16.88;79.65
21504;BME280;10913;51.992;9.228;2022-11-15T12:07:13;99553.97;;;16.74;79.36
21504;BME280;10913;51.992;9.228;2022-11-15T12:12:33;99555.78;;;16.73;79.92
21504;BME280;10913;51.992;9.228;2022-11-15T12:17:35;99551.63;;;16.66;79.66
21504;BME280;10913;51.992;9.228;2022-11-15T12:20:04;99553.25;;;16.70;79.83
21504;BME280;10913;51.992;9.228;2022-11-15T12:22:46;99546.16;;;16.69;79.34
21504;BME280;10913;51.992;9.228;2022-11-15T12:30:50;99537.47;;;16.44;80.16
21504;BME280;10913;51.992;9.228;2022-11-15T12:41:18;99514.47;;;16.41;81.19
21504;BME280;10913;51.992;9.228;2022-11-15T12:43:45;99512.72;;;16.40;80.99
21504;BME280;10913;51.992;9.228;2022-11-15T13:02:25;99494.41;;;16.33;80.14
21504;BME280;10913;51.992;9.228;2022-11-15T13:04:53;99501.59;;;16.31;80.10
21504;BME280;10913;51.992;9.228;2022-11-15T13:09:59;99485.66;;;16.09;81.26
21504;BME280;10913;51.992;9.228;2022-11-15T13:15:01;99487.06;;;15.97;81.61
21504;BME280;10913;51.992;9.228;2022-11-15T13:17:54;99492.50;;;15.94;82.42
21504;BME280;10913;51.992;9.228;2022-11-15T13:20:27;99486.44;;;15.91;82.79
21504;BME280;10913;51.992;9.228;2022-11-15T13:23:14;99477.56;;;15.90;82.73
21504;BME280;10913;51.992;9.228;2022-11-15T13:31:42;99467.00;;;15.67;83.65
21504;BME280;10913;51.992;9.228;2022-11-15T13:34:30;99468.41;;;15.54;84.27
21504;BME280;10913;51.992;9.228;2022-11-15T13:37:01;99466.91;;;15.46;85.12
21504;BME280;10913;51.992;9.228;2022-11-15T13:39:34;99464.63;;;15.37;84.88
21504;BME280;10913;51.992;9.228;2022-11-15T13:42:02;99456.81;;;15.33;85.45
21504;BME280;10913;51.992;9.228;2022-11-15T13:44:30;99467.50;;;15.31;86.08
21504;BME280;10913;51.992;9.228;2022-11-15T13:47:13;99459.53;;;15.31;85.93
21504;BME280;10913;51.992;9.228;2022-11-15T13:49:39;99460.50;;;15.29;86.15
21504;BME280;10913;51.992;9.228;2022-11-15T13:52:07;99460.44;;;15.30;86.03
21504;BME280;10913;51.992;9.228;2022-11-15T13:54:37;99464.97;;;15.28;85.99
21504;BME280;10913;51.992;9.228;2022-11-15T13:59:48;99457.78;;;15.30;86.36
21504;BME280;10913;51.992;9.228;2022-11-15T14:02:17;99456.75;;;15.34;86.11
21504;BME280;10913;51.992;9.228;2022-11-15T14:04:56;99455.00;;;15.33;86.15
21504;BME280;10913;51.992;9.228;2022-11-15T14:07:25;99448.00;;;15.31;86.35
21504;BME280;10913;51.992;9.228;2022-11-15T14:09:51;99446.34;;;15.28;86.80
21504;BME280;10913;51.992;9.228;2022-11-15T14:14:48;99443.69;;;15.28;86.43
21504;BME280;10913;51.992;9.228;2022-11-15T14:19:55;99443.78;;;15.25;86.49
21504;BME280;10913;51.992;9.228;2022-11-15T14:22:23;99439.28;;;15.27;86.94
21504;BME280;10913;51.992;9.228;2022-11-15T14:25:30;99438.47;;;15.25;86.94
21504;BME280;10913;51.992;9.228;2022-11-15T14:30:42;99434.13;;;15.23;86.66
21504;BME280;10913;51.992;9.228;2022-11-15T14:33:33;99432.22;;;15.26;86.54
21504;BME280;10913;51.992;9.228;2022-11-15T14:36:12;99433.16;;;15.25;86.32
21504;BME280;10913;51.992;9.228;2022-11-15T14:38:37;99427.94;;;15.22;86.69
21504;BME280;10913;51.992;9.228;2022-11-15T14:41:03;99423.53;;;15.21;86.92
21504;BME280;10913;51.992;9.228;2022-11-15T14:43:28;99427.22;;;15.19;86.84
21504;BME280;10913;51.992;9.228;2022-11-15T14:45:54;99420.06;;;15.19;87.07
21504;BME280;10913;51.992;9.228;2022-11-15T14:48:19;99424.41;;;15.22;86.98
21504;BME280;10913;51.992;9.228;2022-11-15T14:50:45;99418.28;;;15.20;87.24
21504;BME280;10913;51.992;9.228;2022-11-15T14:53:16;99412.09;;;15.19;87.25
21504;BME280;10913;51.992;9.228;2022-11-15T14:55:43;99405.13;;;15.16;86.99
21504;BME280;10913;51.992;9.228;2022-11-15T14:58:09;99408.78;;;15.14;87.46
21504;BME280;10913;51.992;9.228;2022-11-15T15:00:39;99410.63;;;15.12;87.50
21504;BME280;10913;51.992;9.228;2022-11-15T15:03:05;99399.97;;;15.12;87.53
21504;BME280;10913;51.992;9.228;2022-11-15T15:05:39;99402.53;;;15.15;87.57
21504;BME280;10913;51.992;9.228;2022-11-15T15:08:05;99403.56;;;15.11;87.70
21504;BME280;10913;51.992;9.228;2022-11-15T15:10:34;99400.91;;;15.11;87.50
21504;BME280;10913;51.992;9.228;2022-11-15T15:13:00;99401.84;;;15.10;87.86
21504;BME280;10913;51.992;9.228;2022-11-15T15:15:32;99404.72;;;15.04;87.99
21504;BME280;10913;51.992;9.228;2022-11-15T15:17:58;99396.63;;;15.07;88.22